Home > Products > Valid Products > TAF

000
FTUS44 KOHX 311100
TAFCKV
TAF
KCKV 311133Z 3112/0112 00000KT 4SM BR SCT200
     FM311500 16005KT P6SM SCT060 BKN100
     FM010700 VRB02KT 3SM BR FEW003 SCT070=



000
FTUS44 KOHX 311100
TAFCSV
TAF
KCSV 311133Z 3112/0112 00000KT 5SM BR FEW020 BKN250
     FM311400 17004KT P6SM SCT050 BKN200
     FM010700 VRB02KT 2SM BR VCSH BKN200=



000
FTUS44 KOHX 311100
TAFBNA
TAF
KBNA 311133Z 3112/0112 00000KT P6SM BKN200
     FM311400 15005KT P6SM SCT060 BKN120
     FM010700 VRB02KT 5SM BR BKN200=



000
FTUS44 KOHX 310500
TAFCSV
TAF
KCSV 310525Z 3106/0106 00000KT P6SM SCT250
      TEMPO 3106/3110 4SM BR
     FM311300 15004KT P6SM SCT040 BKN200=



000
FTUS44 KOHX 310500
TAFBNA
TAF
KBNA 310525Z 3106/0106 00000KT P6SM BKN250
     FM311400 15005KT P6SM SCT050 BKN100=



000
FTUS44 KOHX 310500
TAFCKV
TAF
KCKV 310525Z 3106/0106 VRB02KT P6SM SCT250
     FM311400 15005KT P6SM SCT050 BKN100=



000
FTUS44 KOHX 302300
TAFBNA
TAF
KBNA 302321Z 3100/3124 33005KT P6SM SCT080 BKN250
     FM311200 12005KT P6SM SCT050 BKN100=



000
FTUS44 KOHX 302300
TAFCSV
TAF
KCSV 302321Z 3100/3124 34004KT P6SM SCT250
     FM310800 00000KT 5SM BR SCT250
     FM311300 14004KT P6SM SCT040 BKN200=



000
FTUS44 KOHX 302300
TAFCKV
TAF
KCKV 302321Z 3100/3124 27006KT P6SM SCT080 BKN250
     FM311200 10005KT P6SM SCT050 BKN100=



000
FTUS44 KOHX 301700
TAFBNA
TAF
KBNA 301720Z 3018/3118 VRB06KT P6SM SCT050 BKN200=



000
FTUS44 KOHX 301700
TAFCSV
TAF
KCSV 301720Z 3018/3118 02005KT P6SM SCT040 SCT200
     FM310800 00000KT 4SM BR SCT250=



000
FTUS44 KOHX 301700
TAFCKV
TAF
KCKV 301720Z 3018/3118 VRB06KT P6SM SCT040 BKN200
     FM310900 00000KT 5SM BR SCT250=



000
FTUS44 KOHX 301100
TAFCSV
TAF
KCSV 301122Z 3012/3112 00000KT P6SM SKC
     FM301600 02005KT P6SM FEW060 SCT250
     FM310100 00000KT P6SM SKC=



000
FTUS44 KOHX 301100
TAFCKV
TAF
KCKV 301122Z 3012/3112 00000KT P6SM SCT200
     FM301500 31006KT P6SM FEW070 SCT200=



000
FTUS44 KOHX 301100
TAFBNA
TAF
KBNA 301122Z 3012/3112 00000KT P6SM SCT200
     FM301500 36006KT P6SM FEW070 SCT200=



000
FTUS44 KOHX 300500
TAFBNA
TAF
KBNA 300525Z 3006/3106 00000KT P6SM SKC
     FM301500 36006KT P6SM FEW060 SCT250=



000
FTUS44 KOHX 300500
TAFCKV
TAF
KCKV 300525Z 3006/3106 00000KT P6SM SKC
      TEMPO 3010/3012 4SM HZ BR
     FM301500 30006KT P6SM FEW060 SCT250=



000
FTUS44 KOHX 300500
TAFCSV
TAF
KCSV 300525Z 3006/3106 00000KT P6SM SKC
      TEMPO 3008/3012 3SM BR
     FM301400 35005KT P6SM FEW060 SCT250
     FM310100 00000KT P6SM SKC=



000
FTUS44 KOHX 292300
TAFCKV
TAF
KCKV 292320Z 3000/3024 01012G17KT P6SM SCT080
     FM300300 35002KT P6SM SKC
      TEMPO 3010/3012 4SM BR
     FM301700 30007KT P6SM BKN250=



000
FTUS44 KOHX 292300
TAFCSV
TAF
KCSV 292320Z 3000/3024 36008G16KT P6SM BKN050
     FM300200 34002KT P6SM SKC
      TEMPO 3010/3012 4SM BR
     FM301800 33006KT P6SM SCT250=



000
FTUS44 KOHX 292300
TAFBNA
TAF
KBNA 292320Z 3000/3024 34010KT P6SM SCT070
     FM300300 01003KT P6SM SKC
     FM302000 35007KT P6SM BKN250=



000
FTUS44 KOHX 292000 AAA
TAFCKV
TAF AMD
KCKV 292000Z 2920/3018 03008KT P6SM BKN070
     FM300300 35002KT P6SM SKC
      TEMPO 3010/3012 4SM BR=



000
FTUS44 KOHX 291700
TAFCSV
TAF
KCSV 291720Z 2918/3018 31009KT P6SM FEW035
     FM300200 34002KT P6SM SKC
      TEMPO 3010/3012 4SM BR=



000
FTUS44 KOHX 291700
TAFCKV
TAF
KCKV 291720Z 2918/3018 36012KT P6SM SKC
     FM300300 35002KT P6SM SKC
      TEMPO 3010/3012 4SM BR=



000
FTUS44 KOHX 291700
TAFBNA
TAF
KBNA 291720Z 2918/3018 35010KT P6SM SCT050
     FM300300 01003KT P6SM SKC=



000
FTUS44 KOHX 291700 AAB
TAFBNA
TAF AMD
KBNA 291703Z 2917/3012 35010KT P6SM SCT050
     FM300100 34003KT P6SM FEW060=



000
FTUS44 KOHX 291600 AAB
TAFCSV
TAF AMD
KCSV 291601Z 2916/3012 30007KT P6SM FEW030=



000
FTUS44 KOHX 291500 AAA
TAFBNA
TAF AMD
KBNA 291556Z 2916/3012 01010G20KT P6SM FEW045
     FM300100 34003KT P6SM FEW060=



000
FTUS44 KOHX 291400 AAA
TAFCSV
TAF AMD
KCSV 291401Z 2914/3012 01006KT P6SM FEW013 SCT025
     FM291600 34012KT P6SM SCT035=



000
FTUS44 KOHX 291100
TAFCKV
TAF
KCKV 291126Z 2912/3012 33005KT P6SM SKC
     FM291500 35011KT P6SM FEW050=



000
FTUS44 KOHX 291100
TAFBNA
TAF
KBNA 291126Z 2912/3012 36007KT P6SM FEW150
     FM291600 36012KT P6SM SCT050
     FM300100 34003KT P6SM FEW060=



000
FTUS44 KOHX 291100
TAFCSV
TAF
KCSV 291126Z 2912/3012 33004KT 6SM BR SCT007 BKN030
      TEMPO 2912/2914 3SM BR BKN007
     FM291600 34012KT P6SM SCT035=



000
FTUS44 KOHX 291000 AAB
TAFCSV
TAF AMD
KCSV 291003Z 2910/3006 33004KT P6SM SCT030
      TEMPO 2910/2912 4SM BR BKN018
     FM291500 34010KT P6SM SCT040=



000
FTUS44 KOHX 290700 AAA
TAFCSV
TAF AMD
KCSV 290757Z 2908/3006 33004KT P6SM SCT030
      TEMPO 2909/2912 4SM BR
     FM291500 34010KT P6SM SCT040=



000
FTUS44 KOHX 290500
TAFCSV
TAF
KCSV 290537Z 2906/3006 34003KT P6SM SCT060
      TEMPO 2908/2912 4SM BR
     FM291500 34010KT P6SM SCT040=



000
FTUS44 KOHX 290500
TAFCKV
TAF
KCKV 290537Z 2906/3006 34006KT P6SM SKC
     FM291500 35010KT P6SM FEW050=



000
FTUS44 KOHX 290500
TAFBNA
TAF
KBNA 290537Z 2906/3006 35006KT P6SM SKC
     FM291500 36012KT P6SM SCT050=



000
FTUS44 KOHX 282300
TAFCKV
TAF
KCKV 282333Z 2900/2924 34010G18KT P6SM BKN080
     FM290100 33005KT P6SM SKC
     FM291500 36009KT P6SM SCT050=



000
FTUS44 KOHX 282300
TAFBNA
TAF
KBNA 282333Z 2900/2924 33008G16KT P6SM SCT060 BKN080
     FM290100 35006KT P6SM SKC
     FM291500 36010KT P6SM SCT050=



000
FTUS44 KOHX 282300
TAFCSV
TAF
KCSV 282333Z 2900/2924 31007G15KT P6SM BKN035 BKN070
     FM290100 34003KT P6SM SKC
      TEMPO 2908/2912 2SM BR
     FM291500 34009KT P6SM SCT040=



000
FTUS44 KOHX 282000 AAB
TAFBNA
TAF AMD
KBNA 282059Z 2821/2918 33008G16KT P6SM SCT060 BKN080
     FM290400 35005KT P6SM FEW080
     FM291500 36007G15KT P6SM FEW040=



000
FTUS44 KOHX 282000 AAA
TAFCSV
TAF AMD
KCSV 282019Z 2820/2918 31007G15KT P6SM SCT035 BKN070
     FM290300 34003KT P6SM SCT035
      TEMPO 2908/2912 2SM BR
     FM291600 34007G15KT P6SM FEW030=



000
FTUS44 KOHX 281800 AAA
TAFCKV
TAF AMD
KCKV 281857Z 2819/2918 34010G18KT P6SM SCT050 BKN070
     FM290300 33005KT P6SM SKC
      TEMPO 2910/2912 4SM BR
     FM291700 01007G15KT P6SM FEW045=



000
FTUS44 KOHX 281800 AAA
TAFBNA
TAF AMD
KBNA 281857Z 2819/2918 31010G18KT P6SM SCT060 BKN070
     FM291500 36007G15KT P6SM FEW040=



000
FTUS44 KOHX 281700
TAFBNA
TAF
KBNA 281720Z 2818/2918 28010KT P6SM SCT045
     FM291500 36007G15KT P6SM FEW040=



000
FTUS44 KOHX 281700
TAFCSV
TAF
KCSV 281720Z 2818/2918 31009G18KT P6SM SCT035
     FM290300 34003KT P6SM SCT035
      TEMPO 2908/2912 2SM BR
     FM291600 34007G15KT P6SM FEW030=



000
FTUS44 KOHX 281700
TAFCKV
TAF
KCKV 281720Z 2818/2918 31009G18KT P6SM BKN045
     FM290300 33005KT P6SM SKC
      TEMPO 2910/2912 4SM BR
     FM291700 01007G15KT P6SM FEW045=



000
FTUS44 KOHX 281700 AAD
TAFCSV
TAF AMD
KCSV 281703Z 2817/2912 31012G17KT P6SM SCT035 SCT040=



000
FTUS44 KOHX 281500 AAC
TAFCSV
TAF AMD
KCSV 281513Z 2815/2912 28010G17KT P6SM FEW022=



000
FTUS44 KOHX 281500 AAA
TAFCKV
TAF AMD
KCKV 281513Z 2815/2912 31008KT P6SM SKC=



000
FTUS44 KOHX 281500 AAA
TAFBNA
TAF AMD
KBNA 281513Z 2815/2912 29006KT P6SM FEW040=



000
FTUS44 KOHX 281400 AAB
TAFCSV
TAF AMD
KCSV 281411Z 2814/2912 31006KT P6SM SKC=



    US Dept of Commerce
    National Oceanic and Atmospheric Administration
    National Weather Service
    1325 East West Highway
    Silver Spring, MD 20910
    Page Author: NWS Internet Services Team
Disclaimer
Information Quality
Credits
Glossary
Privacy Policy
Freedom of Information Act (FOIA)
About Us
Career Opportunities